sensor_id;sensor_type;location;lat;lon;timestamp;P1;durP1;ratioP1;P2;durP2;ratioP2
16346;SDS011;8283;48.504;13.734;2023-07-24T00:00:07;7.80;;;3.88;;
16346;SDS011;8283;48.504;13.734;2023-07-24T00:02:53;5.97;;;3.50;;
16346;SDS011;8283;48.504;13.734;2023-07-24T00:05:37;6.30;;;3.90;;
16346;SDS011;8283;48.504;13.734;2023-07-24T00:08:22;7.43;;;4.07;;
16346;SDS011;8283;48.504;13.734;2023-07-24T00:11:08;6.13;;;4.50;;
16346;SDS011;8283;48.504;13.734;2023-07-24T00:13:53;8.30;;;4.40;;
16346;SDS011;8283;48.504;13.734;2023-07-24T00:16:38;8.57;;;4.63;;
16346;SDS011;8283;48.504;13.734;2023-07-24T00:19:22;6.43;;;4.07;;
16346;SDS011;8283;48.504;13.734;2023-07-24T00:22:08;6.80;;;4.03;;
16346;SDS011;8283;48.504;13.734;2023-07-24T00:24:53;6.13;;;4.18;;
16346;SDS011;8283;48.504;13.734;2023-07-24T00:27:38;6.65;;;4.10;;
16346;SDS011;8283;48.504;13.734;2023-07-24T00:30:23;7.30;;;4.45;;
16346;SDS011;8283;48.504;13.734;2023-07-24T00:33:08;7.13;;;4.13;;
16346;SDS011;8283;48.504;13.734;2023-07-24T00:35:57;6.25;;;4.28;;
16346;SDS011;8283;48.504;13.734;2023-07-24T00:38:41;7.53;;;4.70;;
16346;SDS011;8283;48.504;13.734;2023-07-24T00:41:27;6.93;;;4.25;;
16346;SDS011;8283;48.504;13.734;2023-07-24T00:44:12;6.80;;;4.07;;
16346;SDS011;8283;48.504;13.734;2023-07-24T00:46:57;6.85;;;4.22;;
16346;SDS011;8283;48.504;13.734;2023-07-24T00:49:43;6.20;;;4.03;;
16346;SDS011;8283;48.504;13.734;2023-07-24T00:52:28;8.80;;;4.88;;
16346;SDS011;8283;48.504;13.734;2023-07-24T00:55:13;5.60;;;3.70;;
16346;SDS011;8283;48.504;13.734;2023-07-24T00:58:00;7.70;;;4.68;;
16346;SDS011;8283;48.504;13.734;2023-07-24T01:00:48;7.90;;;4.43;;
16346;SDS011;8283;48.504;13.734;2023-07-24T01:03:35;6.93;;;4.10;;
16346;SDS011;8283;48.504;13.734;2023-07-24T01:06:22;6.97;;;4.40;;
16346;SDS011;8283;48.504;13.734;2023-07-24T01:09:08;6.15;;;3.83;;
16346;SDS011;8283;48.504;13.734;2023-07-24T01:11:56;7.95;;;3.90;;
16346;SDS011;8283;48.504;13.734;2023-07-24T01:14:47;6.22;;;4.30;;
16346;SDS011;8283;48.504;13.734;2023-07-24T01:17:36;7.50;;;4.65;;
16346;SDS011;8283;48.504;13.734;2023-07-24T01:20:26;6.25;;;4.28;;
16346;SDS011;8283;48.504;13.734;2023-07-24T01:23:14;6.63;;;4.40;;
16346;SDS011;8283;48.504;13.734;2023-07-24T01:26:07;7.63;;;4.43;;
16346;SDS011;8283;48.504;13.734;2023-07-24T01:28:52;7.78;;;4.78;;
16346;SDS011;8283;48.504;13.734;2023-07-24T01:31:37;8.40;;;4.28;;
16346;SDS011;8283;48.504;13.734;2023-07-24T01:34:21;6.65;;;4.72;;
16346;SDS011;8283;48.504;13.734;2023-07-24T01:37:07;6.65;;;4.20;;
16346;SDS011;8283;48.504;13.734;2023-07-24T01:39:52;10.13;;;4.60;;
16346;SDS011;8283;48.504;13.734;2023-07-24T01:42:38;7.70;;;4.55;;
16346;SDS011;8283;48.504;13.734;2023-07-24T01:45:23;6.97;;;4.65;;
16346;SDS011;8283;48.504;13.734;2023-07-24T01:48:07;8.10;;;4.30;;
16346;SDS011;8283;48.504;13.734;2023-07-24T01:50:52;7.53;;;4.50;;
16346;SDS011;8283;48.504;13.734;2023-07-24T01:53:36;7.18;;;5.10;;
16346;SDS011;8283;48.504;13.734;2023-07-24T01:56:20;7.53;;;4.63;;
16346;SDS011;8283;48.504;13.734;2023-07-24T01:59:05;7.90;;;4.80;;
16346;SDS011;8283;48.504;13.734;2023-07-24T02:01:50;8.88;;;4.72;;
16346;SDS011;8283;48.504;13.734;2023-07-24T02:04:34;7.82;;;4.88;;
16346;SDS011;8283;48.504;13.734;2023-07-24T02:07:21;6.93;;;4.43;;
16346;SDS011;8283;48.504;13.734;2023-07-24T02:10:05;7.65;;;4.90;;
16346;SDS011;8283;48.504;13.734;2023-07-24T02:12:49;7.63;;;4.30;;
16346;SDS011;8283;48.504;13.734;2023-07-24T02:15:34;8.32;;;5.20;;
16346;SDS011;8283;48.504;13.734;2023-07-24T02:18:18;8.05;;;5.30;;
16346;SDS011;8283;48.504;13.734;2023-07-24T02:21:03;6.45;;;4.80;;
16346;SDS011;8283;48.504;13.734;2023-07-24T02:23:48;7.53;;;4.07;;
16346;SDS011;8283;48.504;13.734;2023-07-24T02:26:34;7.22;;;4.22;;
16346;SDS011;8283;48.504;13.734;2023-07-24T02:29:21;7.03;;;4.53;;
16346;SDS011;8283;48.504;13.734;2023-07-24T02:32:07;6.93;;;4.40;;
16346;SDS011;8283;48.504;13.734;2023-07-24T02:34:53;7.30;;;4.43;;
16346;SDS011;8283;48.504;13.734;2023-07-24T02:37:37;6.97;;;4.63;;
16346;SDS011;8283;48.504;13.734;2023-07-24T02:40:23;7.25;;;4.82;;
16346;SDS011;8283;48.504;13.734;2023-07-24T02:43:08;6.28;;;4.20;;
16346;SDS011;8283;48.504;13.734;2023-07-24T02:45:52;7.45;;;4.65;;
16346;SDS011;8283;48.504;13.734;2023-07-24T02:48:37;6.93;;;4.78;;
16346;SDS011;8283;48.504;13.734;2023-07-24T02:51:23;9.02;;;4.82;;
16346;SDS011;8283;48.504;13.734;2023-07-24T02:54:08;8.38;;;4.78;;
16346;SDS011;8283;48.504;13.734;2023-07-24T02:56:53;7.03;;;4.32;;
16346;SDS011;8283;48.504;13.734;2023-07-24T02:59:38;6.38;;;4.53;;
16346;SDS011;8283;48.504;13.734;2023-07-24T03:02:23;8.80;;;4.53;;
16346;SDS011;8283;48.504;13.734;2023-07-24T03:05:09;8.38;;;4.85;;
16346;SDS011;8283;48.504;13.734;2023-07-24T03:07:53;6.95;;;4.75;;
16346;SDS011;8283;48.504;13.734;2023-07-24T03:10:39;7.45;;;4.63;;
16346;SDS011;8283;48.504;13.734;2023-07-24T03:13:26;8.70;;;5.13;;
16346;SDS011;8283;48.504;13.734;2023-07-24T03:16:10;7.22;;;4.78;;
16346;SDS011;8283;48.504;13.734;2023-07-24T03:18:56;8.35;;;4.60;;
16346;SDS011;8283;48.504;13.734;2023-07-24T03:21:41;8.68;;;5.05;;
16346;SDS011;8283;48.504;13.734;2023-07-24T03:24:25;7.15;;;4.72;;
16346;SDS011;8283;48.504;13.734;2023-07-24T03:27:10;8.30;;;4.75;;
16346;SDS011;8283;48.504;13.734;2023-07-24T03:29:56;7.63;;;5.03;;
16346;SDS011;8283;48.504;13.734;2023-07-24T03:32:42;7.15;;;4.40;;
16346;SDS011;8283;48.504;13.734;2023-07-24T03:35:27;7.10;;;4.93;;
16346;SDS011;8283;48.504;13.734;2023-07-24T03:38:11;6.88;;;4.60;;
16346;SDS011;8283;48.504;13.734;2023-07-24T03:40:57;7.35;;;4.13;;
16346;SDS011;8283;48.504;13.734;2023-07-24T03:43:42;7.57;;;4.45;;
16346;SDS011;8283;48.504;13.734;2023-07-24T03:46:26;6.85;;;4.53;;
16346;SDS011;8283;48.504;13.734;2023-07-24T03:49:12;7.13;;;4.70;;
16346;SDS011;8283;48.504;13.734;2023-07-24T03:51:57;7.32;;;4.65;;
16346;SDS011;8283;48.504;13.734;2023-07-24T03:54:41;7.18;;;4.40;;
16346;SDS011;8283;48.504;13.734;2023-07-24T03:57:27;5.45;;;3.88;;
16346;SDS011;8283;48.504;13.734;2023-07-24T04:00:11;8.13;;;4.93;;
16346;SDS011;8283;48.504;13.734;2023-07-24T04:02:57;6.85;;;4.63;;
16346;SDS011;8283;48.504;13.734;2023-07-24T04:05:42;7.90;;;4.95;;
16346;SDS011;8283;48.504;13.734;2023-07-24T04:08:27;7.78;;;4.60;;
16346;SDS011;8283;48.504;13.734;2023-07-24T04:11:12;6.75;;;4.57;;
16346;SDS011;8283;48.504;13.734;2023-07-24T04:13:57;9.45;;;5.40;;
16346;SDS011;8283;48.504;13.734;2023-07-24T04:16:42;7.60;;;5.15;;
16346;SDS011;8283;48.504;13.734;2023-07-24T04:19:27;10.00;;;6.00;;
16346;SDS011;8283;48.504;13.734;2023-07-24T04:22:12;6.70;;;4.57;;
16346;SDS011;8283;48.504;13.734;2023-07-24T04:24:56;9.23;;;4.65;;
16346;SDS011;8283;48.504;13.734;2023-07-24T04:27:41;7.00;;;4.50;;
16346;SDS011;8283;48.504;13.734;2023-07-24T04:30:25;7.55;;;3.97;;
16346;SDS011;8283;48.504;13.734;2023-07-24T04:33:09;7.57;;;4.88;;
16346;SDS011;8283;48.504;13.734;2023-07-24T04:35:54;8.52;;;5.05;;
16346;SDS011;8283;48.504;13.734;2023-07-24T04:38:39;7.20;;;4.55;;
16346;SDS011;8283;48.504;13.734;2023-07-24T04:41:24;8.32;;;4.68;;
16346;SDS011;8283;48.504;13.734;2023-07-24T04:44:08;7.82;;;4.05;;
16346;SDS011;8283;48.504;13.734;2023-07-24T04:46:52;7.90;;;4.18;;
16346;SDS011;8283;48.504;13.734;2023-07-24T04:49:36;6.18;;;4.38;;
16346;SDS011;8283;48.504;13.734;2023-07-24T04:52:20;8.68;;;4.55;;
16346;SDS011;8283;48.504;13.734;2023-07-24T04:55:05;6.20;;;4.03;;
16346;SDS011;8283;48.504;13.734;2023-07-24T04:57:49;8.00;;;4.70;;
16346;SDS011;8283;48.504;13.734;2023-07-24T05:00:34;6.35;;;4.65;;
16346;SDS011;8283;48.504;13.734;2023-07-24T05:03:18;8.38;;;4.90;;
16346;SDS011;8283;48.504;13.734;2023-07-24T05:06:03;8.15;;;4.60;;
16346;SDS011;8283;48.504;13.734;2023-07-24T05:08:47;6.90;;;4.38;;
16346;SDS011;8283;48.504;13.734;2023-07-24T05:11:31;7.78;;;5.05;;
16346;SDS011;8283;48.504;13.734;2023-07-24T05:14:15;7.65;;;5.05;;
16346;SDS011;8283;48.504;13.734;2023-07-24T05:17:00;7.22;;;4.57;;
16346;SDS011;8283;48.504;13.734;2023-07-24T05:19:44;7.78;;;5.00;;
16346;SDS011;8283;48.504;13.734;2023-07-24T05:22:29;6.22;;;4.10;;
16346;SDS011;8283;48.504;13.734;2023-07-24T05:25:14;9.25;;;4.43;;
16346;SDS011;8283;48.504;13.734;2023-07-24T05:27:59;7.00;;;5.10;;
16346;SDS011;8283;48.504;13.734;2023-07-24T05:30:44;7.25;;;4.40;;
16346;SDS011;8283;48.504;13.734;2023-07-24T05:33:29;7.55;;;4.95;;
16346;SDS011;8283;48.504;13.734;2023-07-24T05:36:15;6.38;;;4.28;;
16346;SDS011;8283;48.504;13.734;2023-07-24T05:39:00;7.10;;;4.85;;
16346;SDS011;8283;48.504;13.734;2023-07-24T05:41:45;7.43;;;4.72;;
16346;SDS011;8283;48.504;13.734;2023-07-24T05:44:32;7.22;;;4.70;;
16346;SDS011;8283;48.504;13.734;2023-07-24T05:47:17;8.15;;;4.68;;
16346;SDS011;8283;48.504;13.734;2023-07-24T05:50:02;9.02;;;4.38;;
16346;SDS011;8283;48.504;13.734;2023-07-24T05:52:48;7.18;;;4.68;;
16346;SDS011;8283;48.504;13.734;2023-07-24T05:55:32;7.40;;;4.82;;
16346;SDS011;8283;48.504;13.734;2023-07-24T05:58:17;8.75;;;5.00;;
16346;SDS011;8283;48.504;13.734;2023-07-24T06:01:01;6.47;;;4.15;;
16346;SDS011;8283;48.504;13.734;2023-07-24T06:03:46;6.90;;;4.20;;
16346;SDS011;8283;48.504;13.734;2023-07-24T06:06:30;7.47;;;4.75;;
16346;SDS011;8283;48.504;13.734;2023-07-24T06:09:15;6.80;;;4.60;;
16346;SDS011;8283;48.504;13.734;2023-07-24T06:11:59;7.05;;;4.05;;
16346;SDS011;8283;48.504;13.734;2023-07-24T06:14:43;7.25;;;4.70;;
16346;SDS011;8283;48.504;13.734;2023-07-24T06:17:27;6.70;;;4.68;;
16346;SDS011;8283;48.504;13.734;2023-07-24T06:20:12;5.85;;;4.00;;
16346;SDS011;8283;48.504;13.734;2023-07-24T06:22:56;7.28;;;4.60;;
16346;SDS011;8283;48.504;13.734;2023-07-24T06:25:40;7.78;;;4.40;;
16346;SDS011;8283;48.504;13.734;2023-07-24T06:28:24;7.28;;;4.25;;
16346;SDS011;8283;48.504;13.734;2023-07-24T06:31:08;8.65;;;4.35;;
16346;SDS011;8283;48.504;13.734;2023-07-24T06:33:53;6.95;;;4.28;;
16346;SDS011;8283;48.504;13.734;2023-07-24T06:36:37;6.75;;;4.93;;
16346;SDS011;8283;48.504;13.734;2023-07-24T06:39:21;6.63;;;4.35;;
16346;SDS011;8283;48.504;13.734;2023-07-24T06:42:05;7.82;;;4.70;;
16346;SDS011;8283;48.504;13.734;2023-07-24T06:44:49;5.72;;;4.15;;
16346;SDS011;8283;48.504;13.734;2023-07-24T06:47:33;7.60;;;4.68;;
16346;SDS011;8283;48.504;13.734;2023-07-24T06:50:22;6.90;;;4.50;;
16346;SDS011;8283;48.504;13.734;2023-07-24T06:53:15;6.72;;;4.25;;
16346;SDS011;8283;48.504;13.734;2023-07-24T06:56:00;8.00;;;5.05;;
16346;SDS011;8283;48.504;13.734;2023-07-24T06:58:45;6.63;;;4.35;;
16346;SDS011;8283;48.504;13.734;2023-07-24T07:01:30;7.50;;;4.80;;
16346;SDS011;8283;48.504;13.734;2023-07-24T07:04:15;6.43;;;4.32;;
16346;SDS011;8283;48.504;13.734;2023-07-24T07:07:01;6.80;;;4.80;;
16346;SDS011;8283;48.504;13.734;2023-07-24T07:09:46;6.25;;;4.10;;
16346;SDS011;8283;48.504;13.734;2023-07-24T07:12:31;7.00;;;4.68;;
16346;SDS011;8283;48.504;13.734;2023-07-24T07:15:16;8.70;;;4.35;;
16346;SDS011;8283;48.504;13.734;2023-07-24T07:18:01;5.25;;;4.03;;
16346;SDS011;8283;48.504;13.734;2023-07-24T07:20:46;8.05;;;3.92;;
16346;SDS011;8283;48.504;13.734;2023-07-24T07:23:35;5.90;;;4.00;;
16346;SDS011;8283;48.504;13.734;2023-07-24T07:26:19;9.70;;;4.57;;
16346;SDS011;8283;48.504;13.734;2023-07-24T07:29:04;7.28;;;4.43;;
16346;SDS011;8283;48.504;13.734;2023-07-24T07:31:48;5.93;;;3.80;;
16346;SDS011;8283;48.504;13.734;2023-07-24T07:34:32;7.80;;;4.63;;
16346;SDS011;8283;48.504;13.734;2023-07-24T07:37:18;7.93;;;4.88;;
16346;SDS011;8283;48.504;13.734;2023-07-24T07:40:03;5.90;;;4.03;;
16346;SDS011;8283;48.504;13.734;2023-07-24T07:42:48;6.43;;;4.05;;
16346;SDS011;8283;48.504;13.734;2023-07-24T07:45:33;9.02;;;4.32;;
16346;SDS011;8283;48.504;13.734;2023-07-24T07:48:17;5.90;;;4.60;;
16346;SDS011;8283;48.504;13.734;2023-07-24T07:51:01;8.63;;;4.82;;
16346;SDS011;8283;48.504;13.734;2023-07-24T07:53:46;7.43;;;4.85;;
16346;SDS011;8283;48.504;13.734;2023-07-24T07:56:30;7.10;;;4.55;;
16346;SDS011;8283;48.504;13.734;2023-07-24T07:59:14;7.35;;;4.47;;
16346;SDS011;8283;48.504;13.734;2023-07-24T08:01:59;6.50;;;4.05;;
16346;SDS011;8283;48.504;13.734;2023-07-24T08:04:43;5.95;;;4.00;;
16346;SDS011;8283;48.504;13.734;2023-07-24T08:07:27;7.80;;;4.60;;
16346;SDS011;8283;48.504;13.734;2023-07-24T08:10:11;7.47;;;4.25;;
16346;SDS011;8283;48.504;13.734;2023-07-24T08:12:58;6.10;;;4.10;;
16346;SDS011;8283;48.504;13.734;2023-07-24T08:15:42;6.55;;;4.68;;
16346;SDS011;8283;48.504;13.734;2023-07-24T08:18:27;7.72;;;4.28;;
16346;SDS011;8283;48.504;13.734;2023-07-24T08:21:12;7.05;;;4.15;;
16346;SDS011;8283;48.504;13.734;2023-07-24T08:23:58;6.55;;;4.60;;
16346;SDS011;8283;48.504;13.734;2023-07-24T08:26:44;6.85;;;4.75;;
16346;SDS011;8283;48.504;13.734;2023-07-24T08:29:29;5.15;;;4.13;;
16346;SDS011;8283;48.504;13.734;2023-07-24T08:32:14;6.75;;;3.95;;
16346;SDS011;8283;48.504;13.734;2023-07-24T08:34:58;9.55;;;4.35;;
16346;SDS011;8283;48.504;13.734;2023-07-24T08:37:43;5.43;;;4.00;;
16346;SDS011;8283;48.504;13.734;2023-07-24T08:40:28;8.07;;;4.95;;
16346;SDS011;8283;48.504;13.734;2023-07-24T08:43:13;4.90;;;3.80;;
16346;SDS011;8283;48.504;13.734;2023-07-24T08:45:59;5.88;;;3.90;;
16346;SDS011;8283;48.504;13.734;2023-07-24T08:48:45;5.95;;;4.10;;
16346;SDS011;8283;48.504;13.734;2023-07-24T08:51:30;5.82;;;4.05;;
16346;SDS011;8283;48.504;13.734;2023-07-24T08:54:16;7.15;;;4.30;;
16346;SDS011;8283;48.504;13.734;2023-07-24T08:57:02;6.07;;;4.18;;
16346;SDS011;8283;48.504;13.734;2023-07-24T08:59:48;6.03;;;4.40;;
16346;SDS011;8283;48.504;13.734;2023-07-24T09:02:33;6.60;;;4.43;;
16346;SDS011;8283;48.504;13.734;2023-07-24T09:05:19;6.00;;;4.63;;
16346;SDS011;8283;48.504;13.734;2023-07-24T09:08:04;5.18;;;3.95;;
16346;SDS011;8283;48.504;13.734;2023-07-24T09:10:50;5.88;;;4.30;;
16346;SDS011;8283;48.504;13.734;2023-07-24T09:13:36;4.47;;;3.85;;
16346;SDS011;8283;48.504;13.734;2023-07-24T09:16:25;5.32;;;4.22;;
16346;SDS011;8283;48.504;13.734;2023-07-24T09:19:16;7.20;;;4.05;;
16346;SDS011;8283;48.504;13.734;2023-07-24T09:22:09;6.60;;;4.53;;
16346;SDS011;8283;48.504;13.734;2023-07-24T09:24:56;7.13;;;4.30;;
16346;SDS011;8283;48.504;13.734;2023-07-24T09:27:42;5.28;;;4.05;;
16346;SDS011;8283;48.504;13.734;2023-07-24T09:30:28;5.95;;;4.15;;
16346;SDS011;8283;48.504;13.734;2023-07-24T09:33:13;5.18;;;3.65;;
16346;SDS011;8283;48.504;13.734;2023-07-24T09:35:59;5.03;;;3.95;;
16346;SDS011;8283;48.504;13.734;2023-07-24T09:38:45;5.43;;;3.60;;
16346;SDS011;8283;48.504;13.734;2023-07-24T09:41:30;7.32;;;4.30;;
16346;SDS011;8283;48.504;13.734;2023-07-24T09:44:15;4.68;;;3.55;;
16346;SDS011;8283;48.504;13.734;2023-07-24T09:47:00;4.82;;;3.90;;
16346;SDS011;8283;48.504;13.734;2023-07-24T09:49:46;7.80;;;3.58;;
16346;SDS011;8283;48.504;13.734;2023-07-24T09:52:31;5.55;;;3.53;;
16346;SDS011;8283;48.504;13.734;2023-07-24T09:55:25;6.47;;;4.00;;
16346;SDS011;8283;48.504;13.734;2023-07-24T09:58:14;5.32;;;4.00;;
16346;SDS011;8283;48.504;13.734;2023-07-24T10:01:01;5.93;;;3.90;;
16346;SDS011;8283;48.504;13.734;2023-07-24T10:03:50;7.60;;;4.15;;
16346;SDS011;8283;48.504;13.734;2023-07-24T10:06:36;7.13;;;4.35;;
16346;SDS011;8283;48.504;13.734;2023-07-24T10:09:22;6.75;;;4.68;;
16346;SDS011;8283;48.504;13.734;2023-07-24T10:12:08;4.90;;;3.95;;
16346;SDS011;8283;48.504;13.734;2023-07-24T10:14:53;5.65;;;3.97;;
16346;SDS011;8283;48.504;13.734;2023-07-24T10:17:41;5.35;;;3.92;;
16346;SDS011;8283;48.504;13.734;2023-07-24T10:20:32;5.15;;;3.92;;
16346;SDS011;8283;48.504;13.734;2023-07-24T10:23:20;5.05;;;3.80;;
16346;SDS011;8283;48.504;13.734;2023-07-24T10:26:07;6.30;;;3.90;;
16346;SDS011;8283;48.504;13.734;2023-07-24T10:28:52;6.13;;;3.92;;
16346;SDS011;8283;48.504;13.734;2023-07-24T10:31:37;4.43;;;3.30;;
16346;SDS011;8283;48.504;13.734;2023-07-24T10:34:22;4.40;;;3.42;;
16346;SDS011;8283;48.504;13.734;2023-07-24T10:37:07;4.55;;;3.05;;
16346;SDS011;8283;48.504;13.734;2023-07-24T10:39:52;3.95;;;3.25;;
16346;SDS011;8283;48.504;13.734;2023-07-24T10:42:37;5.45;;;3.53;;
16346;SDS011;8283;48.504;13.734;2023-07-24T10:45:21;4.88;;;3.30;;
16346;SDS011;8283;48.504;13.734;2023-07-24T10:48:06;4.90;;;3.38;;
16346;SDS011;8283;48.504;13.734;2023-07-24T10:50:51;4.13;;;3.13;;
16346;SDS011;8283;48.504;13.734;2023-07-24T10:53:36;6.45;;;3.22;;
16346;SDS011;8283;48.504;13.734;2023-07-24T10:56:21;4.95;;;3.60;;
16346;SDS011;8283;48.504;13.734;2023-07-24T10:59:05;4.63;;;3.22;;
16346;SDS011;8283;48.504;13.734;2023-07-24T11:01:50;5.05;;;3.50;;
16346;SDS011;8283;48.504;13.734;2023-07-24T11:04:34;4.70;;;2.92;;
16346;SDS011;8283;48.504;13.734;2023-07-24T11:07:18;4.18;;;3.00;;
16346;SDS011;8283;48.504;13.734;2023-07-24T11:10:14;6.00;;;3.70;;
16346;SDS011;8283;48.504;13.734;2023-07-24T11:13:02;4.78;;;2.88;;
16346;SDS011;8283;48.504;13.734;2023-07-24T11:15:47;5.07;;;3.30;;
16346;SDS011;8283;48.504;13.734;2023-07-24T11:18:32;5.22;;;3.75;;
16346;SDS011;8283;48.504;13.734;2023-07-24T11:21:16;5.72;;;3.35;;
16346;SDS011;8283;48.504;13.734;2023-07-24T11:24:06;5.10;;;3.42;;
16346;SDS011;8283;48.504;13.734;2023-07-24T11:26:53;4.47;;;3.30;;
16346;SDS011;8283;48.504;13.734;2023-07-24T11:29:38;6.53;;;4.15;;
16346;SDS011;8283;48.504;13.734;2023-07-24T11:32:23;5.70;;;3.60;;
16346;SDS011;8283;48.504;13.734;2023-07-24T11:35:08;4.80;;;3.40;;
16346;SDS011;8283;48.504;13.734;2023-07-24T11:37:54;3.95;;;3.17;;
16346;SDS011;8283;48.504;13.734;2023-07-24T11:40:40;4.65;;;3.40;;
16346;SDS011;8283;48.504;13.734;2023-07-24T11:43:28;5.05;;;3.53;;
16346;SDS011;8283;48.504;13.734;2023-07-24T11:46:22;5.40;;;3.42;;
16346;SDS011;8283;48.504;13.734;2023-07-24T11:49:13;4.03;;;2.80;;
16346;SDS011;8283;48.504;13.734;2023-07-24T11:52:03;5.20;;;3.70;;
16346;SDS011;8283;48.504;13.734;2023-07-24T11:54:58;4.57;;;3.38;;
16346;SDS011;8283;48.504;13.734;2023-07-24T11:57:55;5.55;;;3.63;;
16346;SDS011;8283;48.504;13.734;2023-07-24T12:00:43;4.35;;;2.75;;
16346;SDS011;8283;48.504;13.734;2023-07-24T12:03:29;8.60;;;3.72;;
16346;SDS011;8283;48.504;13.734;2023-07-24T12:06:15;6.50;;;3.33;;
16346;SDS011;8283;48.504;13.734;2023-07-24T12:09:02;5.22;;;3.28;;
16346;SDS011;8283;48.504;13.734;2023-07-24T12:11:48;3.97;;;2.97;;
16346;SDS011;8283;48.504;13.734;2023-07-24T12:14:33;3.53;;;2.88;;
16346;SDS011;8283;48.504;13.734;2023-07-24T12:17:18;3.83;;;2.75;;
16346;SDS011;8283;48.504;13.734;2023-07-24T12:20:04;4.90;;;3.20;;
16346;SDS011;8283;48.504;13.734;2023-07-24T12:22:52;3.78;;;2.92;;
16346;SDS011;8283;48.504;13.734;2023-07-24T12:25:38;5.15;;;3.00;;
16346;SDS011;8283;48.504;13.734;2023-07-24T12:28:23;3.63;;;2.78;;
16346;SDS011;8283;48.504;13.734;2023-07-24T12:31:08;4.95;;;3.03;;
16346;SDS011;8283;48.504;13.734;2023-07-24T12:33:53;4.18;;;2.92;;
16346;SDS011;8283;48.504;13.734;2023-07-24T12:36:38;4.38;;;3.05;;
16346;SDS011;8283;48.504;13.734;2023-07-24T12:39:23;3.40;;;3.10;;
16346;SDS011;8283;48.504;13.734;2023-07-24T12:42:08;4.53;;;3.22;;
16346;SDS011;8283;48.504;13.734;2023-07-24T12:44:53;3.40;;;2.83;;
16346;SDS011;8283;48.504;13.734;2023-07-24T12:47:38;5.03;;;3.10;;
16346;SDS011;8283;48.504;13.734;2023-07-24T12:50:23;5.70;;;3.28;;
16346;SDS011;8283;48.504;13.734;2023-07-24T12:53:08;4.85;;;3.30;;
16346;SDS011;8283;48.504;13.734;2023-07-24T12:55:53;4.80;;;2.58;;
16346;SDS011;8283;48.504;13.734;2023-07-24T12:58:38;4.82;;;3.45;;
16346;SDS011;8283;48.504;13.734;2023-07-24T13:01:23;4.45;;;3.10;;
16346;SDS011;8283;48.504;13.734;2023-07-24T13:04:08;3.42;;;2.70;;
16346;SDS011;8283;48.504;13.734;2023-07-24T13:06:53;4.95;;;2.97;;
16346;SDS011;8283;48.504;13.734;2023-07-24T13:09:38;4.65;;;3.15;;
16346;SDS011;8283;48.504;13.734;2023-07-24T13:12:23;3.58;;;2.72;;
16346;SDS011;8283;48.504;13.734;2023-07-24T13:15:08;4.20;;;3.05;;
16346;SDS011;8283;48.504;13.734;2023-07-24T13:17:53;3.80;;;2.58;;
16346;SDS011;8283;48.504;13.734;2023-07-24T13:20:38;4.05;;;3.10;;
16346;SDS011;8283;48.504;13.734;2023-07-24T13:23:24;3.97;;;3.20;;
16346;SDS011;8283;48.504;13.734;2023-07-24T13:26:09;4.57;;;3.38;;
16346;SDS011;8283;48.504;13.734;2023-07-24T13:28:54;4.78;;;3.60;;
16346;SDS011;8283;48.504;13.734;2023-07-24T13:31:38;4.00;;;3.30;;
16346;SDS011;8283;48.504;13.734;2023-07-24T13:34:24;4.32;;;2.85;;
16346;SDS011;8283;48.504;13.734;2023-07-24T13:37:09;5.07;;;3.25;;
16346;SDS011;8283;48.504;13.734;2023-07-24T13:39:53;4.90;;;3.20;;
16346;SDS011;8283;48.504;13.734;2023-07-24T13:42:37;4.65;;;3.50;;
16346;SDS011;8283;48.504;13.734;2023-07-24T13:45:22;4.45;;;3.10;;
16346;SDS011;8283;48.504;13.734;2023-07-24T13:48:06;4.22;;;3.70;;
16346;SDS011;8283;48.504;13.734;2023-07-24T13:50:51;7.10;;;3.70;;
16346;SDS011;8283;48.504;13.734;2023-07-24T13:53:35;4.43;;;3.50;;
16346;SDS011;8283;48.504;13.734;2023-07-24T13:56:20;5.75;;;3.90;;
16346;SDS011;8283;48.504;13.734;2023-07-24T13:59:07;4.07;;;3.28;;
16346;SDS011;8283;48.504;13.734;2023-07-24T14:01:51;3.95;;;3.28;;
16346;SDS011;8283;48.504;13.734;2023-07-24T14:04:35;3.75;;;2.92;;
16346;SDS011;8283;48.504;13.734;2023-07-24T14:07:20;4.38;;;3.00;;
16346;SDS011;8283;48.504;13.734;2023-07-24T14:10:04;3.63;;;2.67;;
16346;SDS011;8283;48.504;13.734;2023-07-24T14:12:50;4.82;;;2.85;;
16346;SDS011;8283;48.504;13.734;2023-07-24T14:15:34;4.43;;;3.00;;
16346;SDS011;8283;48.504;13.734;2023-07-24T14:18:18;6.03;;;3.50;;
16346;SDS011;8283;48.504;13.734;2023-07-24T14:21:03;3.40;;;2.78;;
16346;SDS011;8283;48.504;13.734;2023-07-24T14:23:47;3.60;;;2.88;;
16346;SDS011;8283;48.504;13.734;2023-07-24T14:26:32;3.42;;;2.75;;
16346;SDS011;8283;48.504;13.734;2023-07-24T14:29:17;3.75;;;2.78;;
16346;SDS011;8283;48.504;13.734;2023-07-24T14:32:02;4.70;;;2.83;;
16346;SDS011;8283;48.504;13.734;2023-07-24T14:34:50;8.52;;;2.88;;
16346;SDS011;8283;48.504;13.734;2023-07-24T14:37:35;3.25;;;2.30;;
16346;SDS011;8283;48.504;13.734;2023-07-24T14:40:20;4.00;;;2.28;;
16346;SDS011;8283;48.504;13.734;2023-07-24T14:43:05;2.92;;;2.22;;
16346;SDS011;8283;48.504;13.734;2023-07-24T14:45:50;3.35;;;2.60;;
16346;SDS011;8283;48.504;13.734;2023-07-24T14:48:35;4.10;;;2.63;;
16346;SDS011;8283;48.504;13.734;2023-07-24T14:51:20;3.33;;;2.15;;
16346;SDS011;8283;48.504;13.734;2023-07-24T14:54:05;5.38;;;2.53;;
16346;SDS011;8283;48.504;13.734;2023-07-24T14:56:51;3.25;;;2.70;;
16346;SDS011;8283;48.504;13.734;2023-07-24T14:59:37;3.85;;;2.60;;
16346;SDS011;8283;48.504;13.734;2023-07-24T15:02:21;3.63;;;2.83;;
16346;SDS011;8283;48.504;13.734;2023-07-24T15:05:07;3.88;;;2.70;;
16346;SDS011;8283;48.504;13.734;2023-07-24T15:07:51;3.30;;;2.38;;
16346;SDS011;8283;48.504;13.734;2023-07-24T15:10:36;3.30;;;2.53;;
16346;SDS011;8283;48.504;13.734;2023-07-24T15:13:21;4.85;;;2.55;;
16346;SDS011;8283;48.504;13.734;2023-07-24T15:16:06;3.97;;;2.72;;
16346;SDS011;8283;48.504;13.734;2023-07-24T15:18:51;3.55;;;2.38;;
16346;SDS011;8283;48.504;13.734;2023-07-24T15:21:36;5.93;;;2.97;;
16346;SDS011;8283;48.504;13.734;2023-07-24T15:24:21;3.83;;;2.80;;
16346;SDS011;8283;48.504;13.734;2023-07-24T15:27:06;3.42;;;2.30;;
16346;SDS011;8283;48.504;13.734;2023-07-24T15:29:54;4.53;;;2.95;;
16346;SDS011;8283;48.504;13.734;2023-07-24T15:32:42;4.32;;;2.55;;
16346;SDS011;8283;48.504;13.734;2023-07-24T15:35:27;3.83;;;2.13;;
16346;SDS011;8283;48.504;13.734;2023-07-24T15:38:12;3.00;;;2.38;;
16346;SDS011;8283;48.504;13.734;2023-07-24T15:40:57;3.28;;;2.60;;
16346;SDS011;8283;48.504;13.734;2023-07-24T15:43:42;4.50;;;2.53;;
16346;SDS011;8283;48.504;13.734;2023-07-24T15:46:27;2.90;;;2.13;;
16346;SDS011;8283;48.504;13.734;2023-07-24T15:49:14;3.03;;;2.30;;
16346;SDS011;8283;48.504;13.734;2023-07-24T15:51:59;3.47;;;2.38;;
16346;SDS011;8283;48.504;13.734;2023-07-24T15:54:43;3.28;;;2.47;;
16346;SDS011;8283;48.504;13.734;2023-07-24T15:57:28;4.25;;;2.50;;
16346;SDS011;8283;48.504;13.734;2023-07-24T16:00:13;3.78;;;2.80;;
16346;SDS011;8283;48.504;13.734;2023-07-24T16:03:00;4.55;;;3.00;;
16346;SDS011;8283;48.504;13.734;2023-07-24T16:05:45;3.88;;;2.97;;
16346;SDS011;8283;48.504;13.734;2023-07-24T16:08:29;3.22;;;2.50;;
16346;SDS011;8283;48.504;13.734;2023-07-24T16:11:15;3.95;;;2.80;;
16346;SDS011;8283;48.504;13.734;2023-07-24T16:14:00;3.55;;;2.70;;
16346;SDS011;8283;48.504;13.734;2023-07-24T16:16:44;2.92;;;2.50;;
16346;SDS011;8283;48.504;13.734;2023-07-24T16:19:29;3.53;;;2.70;;
16346;SDS011;8283;48.504;13.734;2023-07-24T16:22:14;4.10;;;2.75;;
16346;SDS011;8283;48.504;13.734;2023-07-24T16:24:59;3.65;;;2.97;;
16346;SDS011;8283;48.504;13.734;2023-07-24T16:27:44;3.58;;;2.67;;
16346;SDS011;8283;48.504;13.734;2023-07-24T16:30:28;3.88;;;2.83;;
16346;SDS011;8283;48.504;13.734;2023-07-24T16:33:13;5.15;;;2.80;;
16346;SDS011;8283;48.504;13.734;2023-07-24T16:35:57;3.80;;;2.53;;